createdAt,value
2022-11-24T00:01:23.279Z,96506.97
2022-11-24T00:03:59.115Z,96511.72
2022-11-24T00:06:26.536Z,96505.66
2022-11-24T00:08:53.790Z,96509.13
2022-11-24T00:11:25.894Z,96512.44
2022-11-24T00:13:53.673Z,96519.34
2022-11-24T00:16:25.857Z,96512.44
2022-11-24T00:18:54.829Z,96511.84
2022-11-24T00:21:22.244Z,96509.81
2022-11-24T00:23:49.737Z,96519.47
2022-11-24T00:26:18.811Z,96517.34
2022-11-24T00:28:47.719Z,96522.81
2022-11-24T00:31:23.464Z,96509.13
2022-11-24T00:33:52.488Z,96516.00
2022-11-24T00:36:20.519Z,96516.00
2022-11-24T00:38:48.157Z,96526.97
2022-11-24T00:41:14.855Z,96513.97
2022-11-24T00:43:41.624Z,96522.19
2022-11-24T00:46:08.769Z,96523.63
2022-11-24T00:48:36.132Z,96521.50
2022-11-24T00:51:06.090Z,96524.22
2022-11-24T00:53:32.986Z,96523.00
2022-11-24T00:55:59.702Z,96513.38
2022-11-24T00:58:26.419Z,96530.53
2022-11-24T01:00:53.328Z,96524.34
2022-11-24T01:03:21.112Z,96540.16
2022-11-24T01:05:48.028Z,96531.94
2022-11-24T01:08:15.095Z,96545.63
2022-11-24T01:10:41.835Z,96552.56
2022-11-24T01:13:08.660Z,96545.75
2022-11-24T01:15:36.692Z,96552.56
2022-11-24T01:18:04.439Z,96553.97
2022-11-24T01:20:31.790Z,96551.34
2022-11-24T01:22:58.802Z,96547.19
2022-11-24T01:25:25.531Z,96551.34
2022-11-24T01:27:52.571Z,96545.88
2022-11-24T01:30:19.332Z,96531.47
2022-11-24T01:32:46.076Z,96535.53
2022-11-24T01:35:12.757Z,96530.03
2022-11-24T01:37:39.513Z,96526.59
2022-11-24T01:40:07.062Z,96527.91
2022-11-24T01:42:40.847Z,96523.72
2022-11-24T01:45:28.534Z,96516.25
2022-11-24T01:47:55.557Z,96516.97
2022-11-24T01:50:22.776Z,96512.06
2022-11-24T01:52:53.475Z,96516.13
2022-11-24T01:55:23.241Z,96512.66
2022-11-24T01:58:06.507Z,96518.84
2022-11-24T02:00:41.302Z,96518.16
2022-11-24T02:03:10.236Z,96516.00
2022-11-24T02:05:57.559Z,96525.53
2022-11-24T02:08:40.658Z,96531.72
2022-11-24T02:11:07.457Z,96523.50
2022-11-24T02:13:37.052Z,96530.31
2022-11-24T02:16:06.526Z,96528.16
2022-11-24T02:18:33.540Z,96536.38
2022-11-24T02:21:00.570Z,96531.59
2022-11-24T02:23:36.183Z,96532.91
2022-11-24T02:26:26.315Z,96524.00
2022-11-24T02:28:53.192Z,96533.63
2022-11-24T02:31:19.904Z,96543.88
2022-11-24T02:33:47.376Z,96545.09
2022-11-24T02:36:14.070Z,96539.59
2022-11-24T02:38:40.766Z,96556.03
2022-11-24T02:41:09.287Z,96551.13
2022-11-24T02:43:39.632Z,96549.72
2022-11-24T02:46:06.931Z,96551.84
2022-11-24T02:48:33.649Z,96547.69
2022-11-24T02:51:00.365Z,96548.41
2022-11-24T02:53:26.998Z,96553.16
2022-11-24T02:55:53.786Z,96546.25
2022-11-24T02:58:20.863Z,96557.94
2022-11-24T03:00:47.855Z,96555.28
2022-11-24T03:03:14.659Z,96545.09
2022-11-24T03:05:41.425Z,96556.03
2022-11-24T03:08:08.048Z,96559.34
2022-11-24T03:10:34.801Z,96555.91
2022-11-24T03:13:01.499Z,96571.72
2022-11-24T03:15:28.230Z,96560.06
2022-11-24T03:17:56.576Z,96559.34
2022-11-24T03:20:24.181Z,96556.03
2022-11-24T03:22:50.890Z,96564.97
2022-11-24T03:25:17.959Z,96563.50
2022-11-24T03:27:44.643Z,96550.56
2022-11-24T03:30:12.378Z,96562.22
2022-11-24T03:32:39.050Z,96559.47
2022-11-24T03:35:06.283Z,96556.75
2022-11-24T03:37:32.941Z,96544.47
2022-11-24T03:39:59.739Z,96546.50
2022-11-24T03:42:26.423Z,96551.25
2022-11-24T03:44:53.178Z,96541.59
2022-11-24T03:47:19.851Z,96534.13
2022-11-24T03:49:46.598Z,96529.94
2022-11-24T03:52:13.298Z,96551.84
2022-11-24T03:54:40.073Z,96540.31
2022-11-24T03:57:07.083Z,96543.06
2022-11-24T03:59:33.789Z,96536.72
2022-11-24T04:02:00.501Z,96544.34
2022-11-24T04:04:27.203Z,96540.19
2022-11-24T04:06:53.832Z,96545.09
2022-11-24T04:09:20.604Z,96551.84
2022-11-24T04:12:06.153Z,96553.16
2022-11-24T04:14:33.311Z,96566.75
2022-11-24T04:17:00.193Z,96562.69
2022-11-24T04:19:26.989Z,96565.44
2022-11-24T04:21:53.794Z,96577.09
2022-11-24T04:24:20.648Z,96610.66
2022-11-24T04:26:47.341Z,96628.50
2022-11-24T04:29:14.038Z,96629.81
2022-11-24T04:31:40.784Z,96634.47
2022-11-24T04:34:07.534Z,96640.41
2022-11-24T04:36:34.184Z,96632.81
2022-11-24T04:39:25.473Z,96648.53
2022-11-24T04:41:48.377Z,96648.53
2022-11-24T04:44:15.252Z,96639.69
2022-11-24T04:46:41.999Z,96636.97
2022-11-24T04:49:18.571Z,96626.63
2022-11-24T04:51:47.959Z,96636.25
2022-11-24T04:54:15.201Z,96642.44
2022-11-24T04:56:42.706Z,96639.09
2022-11-24T04:59:15.878Z,96639.81
2022-11-24T05:01:43.461Z,96613.88
2022-11-24T05:04:11.760Z,96601.50
2022-11-24T05:06:38.704Z,96591.97
2022-11-24T05:09:05.985Z,96582.31
2022-11-24T05:11:33.010Z,96581.03
2022-11-24T05:13:59.927Z,96570.09
2022-11-24T05:16:26.898Z,96576.84
2022-11-24T05:18:53.594Z,96569.25
2022-11-24T05:21:20.349Z,96585.78
2022-11-24T05:23:47.073Z,96593.88
2022-11-24T05:26:13.808Z,96595.91
2022-11-24T05:28:40.541Z,96614.34
2022-11-24T05:31:07.909Z,96642.44
2022-11-24T05:33:38.285Z,96654.00
2022-11-24T05:36:06.412Z,96646.25
2022-11-24T05:38:33.612Z,96641.47
2022-11-24T05:41:05.012Z,96635.41
2022-11-24T05:43:31.960Z,96641.03
2022-11-24T05:46:02.083Z,96647.06
2022-11-24T05:48:29.331Z,96655.28
2022-11-24T05:50:57.334Z,96655.88
2022-11-24T05:53:25.736Z,96662.66
2022-11-24T05:55:52.478Z,96657.19
2022-11-24T05:58:19.281Z,96661.97
2022-11-24T06:00:46.027Z,96657.91
2022-11-24T06:03:13.134Z,96656.47
2022-11-24T06:05:40.103Z,96655.16
2022-11-24T06:08:06.867Z,96651.00
2022-11-24T06:10:33.593Z,96651.00
2022-11-24T06:13:05.171Z,96642.78
2022-11-24T06:15:32.362Z,96657.91
2022-11-24T06:18:00.266Z,96659.34
2022-11-24T06:20:31.331Z,96652.53
2022-11-24T06:23:00.124Z,96668.84
2022-11-24T06:25:27.454Z,96650.41
2022-11-24T06:27:54.173Z,96656.59
2022-11-24T06:30:21.403Z,96665.53
2022-11-24T06:32:50.027Z,96668.97
2022-11-24T06:35:17.021Z,96679.91
2022-11-24T06:37:43.907Z,96692.19
2022-11-24T06:40:10.930Z,96697.66
2022-11-24T06:42:37.917Z,96686.00
2022-11-24T06:45:08.992Z,96690.75
2022-11-24T06:47:36.333Z,96695.63
2022-11-24T06:50:03.418Z,96690.88
2022-11-24T06:52:30.238Z,96697.09
2022-11-24T06:54:57.385Z,96703.13
2022-11-24T06:57:24.217Z,96708.25
2022-11-24T06:59:51.198Z,96710.94
2022-11-24T07:02:18.010Z,96727.75
2022-11-24T07:04:44.693Z,96727.94
2022-11-24T07:07:11.480Z,96737.06
2022-11-24T07:09:38.214Z,96738.47
2022-11-24T07:12:06.013Z,96751.56
2022-11-24T07:14:33.576Z,96738.91
2022-11-24T07:17:02.668Z,96750.00
2022-11-24T07:19:29.488Z,96757.69
2022-11-24T07:21:56.315Z,96755.56
2022-11-24T07:24:23.043Z,96766.78
2022-11-24T07:26:49.827Z,96775.09
2022-11-24T07:29:16.565Z,96778.97
2022-11-24T07:31:43.448Z,96781.25
2022-11-24T07:34:10.442Z,96782.88
2022-11-24T07:36:37.206Z,96787.63
2022-11-24T07:39:06.947Z,96791.09
2022-11-24T07:41:33.707Z,96787.66
2022-11-24T07:44:00.430Z,96792.69
2022-11-24T07:46:27.348Z,96794.50
2022-11-24T07:48:54.097Z,96795.41
2022-11-24T07:51:20.994Z,96791.41
2022-11-24T07:53:47.718Z,96795.13
2022-11-24T07:56:14.562Z,96796.41
2022-11-24T07:58:41.506Z,96799.66
2022-11-24T08:01:17.081Z,96801.69
2022-11-24T08:03:45.343Z,96803.25
2022-11-24T08:06:35.367Z,96808.41
2022-11-24T08:09:00.200Z,96810.34
2022-11-24T08:11:27.352Z,96816.56
2022-11-24T08:13:54.191Z,96824.88
2022-11-24T08:16:21.320Z,96828.44
2022-11-24T08:18:55.591Z,96831.47
2022-11-24T08:21:23.608Z,96831.28
2022-11-24T08:23:54.147Z,96834.03
2022-11-24T08:26:20.945Z,96835.97
2022-11-24T08:28:48.115Z,96850.94
2022-11-24T08:31:18.823Z,96859.03
2022-11-24T08:33:46.012Z,96846.47
2022-11-24T08:36:18.955Z,96856.03
2022-11-24T08:38:46.150Z,96863.25
2022-11-24T08:41:15.270Z,96853.63
2022-11-24T08:43:42.430Z,96862.81
2022-11-24T08:46:12.793Z,96861.25
2022-11-24T08:48:40.349Z,96873.50
2022-11-24T08:51:13.883Z,96876.84
2022-11-24T08:53:41.302Z,96880.31
2022-11-24T08:56:09.258Z,96875.38
2022-11-24T08:58:37.700Z,96890.88
2022-11-24T09:01:12.461Z,96892.28
2022-11-24T09:03:44.769Z,96893.41
2022-11-24T09:06:17.037Z,96889.09
2022-11-24T09:08:43.763Z,96897.63
2022-11-24T09:11:12.557Z,96903.09
2022-11-24T09:13:40.365Z,96906.34
2022-11-24T09:16:14.868Z,96901.00
2022-11-24T09:18:42.202Z,96912.88
2022-11-24T09:21:11.332Z,96919.59
2022-11-24T09:23:38.337Z,96914.97
2022-11-24T09:26:09.639Z,96916.53
2022-11-24T09:28:36.819Z,96909.16
2022-11-24T09:31:05.556Z,96926.13
2022-11-24T09:33:32.941Z,96926.13
2022-11-24T09:36:00.174Z,96920.50
2022-11-24T09:38:27.334Z,96926.63
2022-11-24T09:40:57.328Z,96928.91
2022-11-24T09:43:58.042Z,96938.69
2022-11-24T09:46:41.192Z,96940.78
2022-11-24T09:49:20.077Z,96945.47
2022-11-24T09:51:49.300Z,96949.88
2022-11-24T09:54:21.971Z,96955.56
2022-11-24T09:56:51.332Z,96953.00
2022-11-24T09:59:22.573Z,96964.91
2022-11-24T10:01:50.443Z,96954.88
2022-11-24T10:04:29.268Z,96951.78
2022-11-24T10:07:11.669Z,96959.00
2022-11-24T10:09:54.621Z,96958.56
2022-11-24T10:12:35.421Z,96956.53
2022-11-24T10:15:16.418Z,96953.53
2022-11-24T10:17:45.513Z,96955.28
2022-11-24T10:20:45.002Z,96952.75
2022-11-24T10:23:11.906Z,96963.53
2022-11-24T10:25:44.750Z,96968.56
2022-11-24T10:28:14.702Z,96962.81
2022-11-24T10:30:42.035Z,96962.47
2022-11-24T10:33:17.866Z,96970.34
2022-11-24T10:35:48.785Z,96968.22
2022-11-24T10:38:21.255Z,96964.38
2022-11-24T10:40:57.300Z,96959.44
2022-11-24T10:43:28.423Z,96963.84
2022-11-24T10:45:55.824Z,96953.16
2022-11-24T10:48:25.525Z,96954.44
2022-11-24T10:51:06.746Z,96954.44
2022-11-24T10:53:35.075Z,96945.44
2022-11-24T10:56:04.965Z,96943.88
2022-11-24T10:58:37.308Z,96938.03
2022-11-24T11:01:14.410Z,96946.44
2022-11-24T11:03:49.670Z,96954.78
2022-11-24T11:06:24.632Z,96960.19
2022-11-24T11:09:07.334Z,96958.75
2022-11-24T11:11:36.492Z,96966.16
2022-11-24T11:14:05.603Z,96953.91
2022-11-24T11:16:51.158Z,96953.03
2022-11-24T11:20:02.035Z,96964.78
2022-11-24T11:22:32.377Z,96960.19
2022-11-24T11:25:11.442Z,96965.50
2022-11-24T11:27:40.410Z,96963.31
2022-11-24T11:36:11.156Z,96964.97
2022-11-24T11:38:39.470Z,96971.06
2022-11-24T11:41:08.825Z,96966.06
2022-11-24T11:43:36.427Z,96969.41
2022-11-24T11:46:22.540Z,96960.38
2022-11-24T11:48:49.736Z,96959.31
2022-11-24T11:51:49.072Z,96968.84
2022-11-24T11:54:30.797Z,96968.22
2022-11-24T11:57:11.324Z,96972.25
2022-11-24T11:59:49.958Z,96978.09
2022-11-24T12:02:32.185Z,96985.03
2022-11-24T12:05:20.497Z,96980.38
2022-11-24T12:07:56.405Z,96987.03
2022-11-24T12:10:48.142Z,96982.03
2022-11-24T12:13:33.561Z,96991.47
2022-11-24T12:16:15.675Z,96990.03
2022-11-24T12:18:59.291Z,96985.16
2022-11-24T12:21:46.770Z,96988.97
2022-11-24T12:24:32.405Z,96985.75
2022-11-24T12:27:04.390Z,96976.56
2022-11-24T12:29:44.807Z,96977.06
2022-11-24T12:32:31.403Z,96979.94
2022-11-24T12:35:09.987Z,96980.44
2022-11-24T12:37:46.044Z,96981.97
2022-11-24T12:40:31.134Z,96987.09
2022-11-24T12:43:04.837Z,96973.00
2022-11-24T12:45:40.135Z,96976.50
2022-11-24T12:48:22.687Z,96977.94
2022-11-24T12:50:50.558Z,96974.94
2022-11-24T12:53:23.862Z,96970.63
2022-11-24T12:55:51.167Z,96961.66
2022-11-24T12:58:35.760Z,96971.59
2022-11-24T13:01:35.047Z,96967.88
2022-11-24T13:04:10.372Z,96970.00
2022-11-24T13:06:52.334Z,96976.06
2022-11-24T13:09:19.153Z,96969.41
2022-11-24T13:11:53.244Z,96966.78
2022-11-24T13:14:25.360Z,96967.84
2022-11-24T13:19:41.687Z,96966.22
2022-11-24T13:22:08.354Z,96959.66
2022-11-24T13:24:37.034Z,96951.91
2022-11-24T13:27:16.222Z,96948.94
2022-11-24T13:29:52.207Z,96950.03
2022-11-24T13:32:18.924Z,96951.72
2022-11-24T13:34:45.934Z,96948.38
2022-11-24T13:37:31.897Z,96953.19
2022-11-24T13:40:14.017Z,96948.28
2022-11-24T13:42:56.620Z,96950.16
2022-11-24T13:45:50.743Z,96938.53
2022-11-24T13:48:21.007Z,96936.34
2022-11-24T13:50:51.654Z,96929.97
2022-11-24T13:53:45.430Z,96922.06
2022-11-24T13:56:12.255Z,96923.44
2022-11-24T13:58:42.091Z,96909.75
2022-11-24T14:01:19.503Z,96918.75
2022-11-24T14:04:07.127Z,96917.91
2022-11-24T14:06:34.858Z,96915.81
2022-11-24T14:09:20.412Z,96908.09
2022-11-24T14:12:15.513Z,96897.50
2022-11-24T14:14:44.553Z,96901.22
2022-11-24T14:17:17.611Z,96895.63
2022-11-24T14:19:46.807Z,96889.88
2022-11-24T14:22:20.972Z,96886.56
2022-11-24T14:24:56.473Z,96887.03
2022-11-24T14:27:40.122Z,96884.31
2022-11-24T14:30:09.774Z,96881.56
2022-11-24T14:32:37.870Z,96874.66
2022-11-24T14:35:26.707Z,96879.16
2022-11-24T14:37:53.559Z,96880.75
2022-11-24T14:40:56.060Z,96877.22
2022-11-24T14:43:26.160Z,96877.41
2022-11-24T14:46:12.289Z,96869.19
2022-11-24T14:48:45.554Z,96871.81
2022-11-24T14:51:24.322Z,96867.97
2022-11-24T14:53:53.270Z,96864.50
2022-11-24T14:56:25.719Z,96872.00
2022-11-24T14:58:53.538Z,96864.13
2022-11-24T15:01:23.491Z,96868.47
2022-11-24T15:04:17.880Z,96871.94
2022-11-24T15:07:21.362Z,96868.50
2022-11-24T15:09:48.061Z,96869.38
2022-11-24T15:12:36.350Z,96862.06
2022-11-24T15:15:24.522Z,96870.38
2022-11-24T15:17:57.086Z,96872.69
2022-11-24T15:20:30.758Z,96868.06
2022-11-24T15:23:27.708Z,96869.09
2022-11-24T15:25:55.848Z,96873.53
2022-11-24T15:28:26.224Z,96877.72
2022-11-24T15:30:54.823Z,96881.19
2022-11-24T15:33:22.855Z,96884.91
2022-11-24T15:35:49.878Z,96892.25
2022-11-24T15:38:17.205Z,96894.69
2022-11-24T15:40:49.086Z,96891.06
2022-11-24T15:43:34.641Z,96899.00
2022-11-24T15:46:02.584Z,96893.63
2022-11-24T15:48:30.147Z,96888.59
2022-11-24T15:50:58.064Z,96894.19
2022-11-24T15:53:31.911Z,96892.59
2022-11-24T15:55:59.835Z,96892.56
2022-11-24T15:58:26.605Z,96897.00
2022-11-24T16:00:53.813Z,96899.72
2022-11-24T16:06:15.019Z,96903.59
2022-11-24T16:08:43.573Z,96903.59
2022-11-24T16:11:10.317Z,96908.19
2022-11-24T16:13:37.075Z,96916.94
2022-11-24T16:16:04.036Z,96905.88
2022-11-24T16:18:31.842Z,96909.59
2022-11-24T16:20:59.064Z,96910.56
2022-11-24T16:23:25.851Z,96911.56
2022-11-24T16:25:52.559Z,96909.97
2022-11-24T16:28:20.301Z,96914.53
2022-11-24T16:30:50.809Z,96911.38
2022-11-24T16:33:17.730Z,96918.97
2022-11-24T16:35:48.191Z,96915.97
2022-11-24T16:38:16.357Z,96929.97
2022-11-24T16:40:43.534Z,96932.50
2022-11-24T16:43:10.623Z,96941.66
2022-11-24T16:45:40.810Z,96936.59
2022-11-24T16:48:10.493Z,96936.94
2022-11-24T16:50:37.931Z,96940.50
2022-11-24T16:53:04.721Z,96950.41
2022-11-24T16:55:31.387Z,96948.47
2022-11-24T16:57:58.164Z,96938.16
2022-11-24T17:00:24.875Z,96932.84
2022-11-24T17:02:51.636Z,96925.97
2022-11-24T17:05:18.394Z,96918.94
2022-11-24T17:07:45.192Z,96914.69
2022-11-24T17:10:11.857Z,96908.13
2022-11-24T17:12:38.756Z,96905.78
2022-11-24T17:18:22.368Z,96916.78
2022-11-24T17:20:39.876Z,96912.38
2022-11-24T17:23:06.664Z,96914.56
2022-11-24T17:25:33.432Z,96912.56
2022-11-24T17:28:00.243Z,96902.97
2022-11-24T17:30:27.021Z,96902.28
2022-11-24T17:32:56.978Z,96895.97
2022-11-24T17:35:23.947Z,96905.44
2022-11-24T17:37:51.100Z,96896.97
2022-11-24T17:40:34.564Z,96898.69
2022-11-24T17:43:01.815Z,96896.53
2022-11-24T17:45:29.430Z,96892.09
2022-11-24T17:47:57.306Z,96902.56
2022-11-24T17:50:26.002Z,96896.69
2022-11-24T17:52:55.306Z,96902.44
2022-11-24T17:55:23.012Z,96899.25
2022-11-24T17:57:50.589Z,96905.72
2022-11-24T18:00:17.783Z,96892.94
2022-11-24T18:02:45.359Z,96891.03
2022-11-24T18:05:12.214Z,96891.91
2022-11-24T18:07:39.296Z,96881.69
2022-11-24T18:10:06.672Z,96883.84
2022-11-24T18:12:33.417Z,96889.44
2022-11-24T18:15:00.195Z,96896.34
2022-11-24T18:17:29.031Z,96890.91
2022-11-24T18:19:56.103Z,96896.34
2022-11-24T18:22:43.044Z,96899.22
2022-11-24T18:25:09.820Z,96895.91
2022-11-24T18:27:36.708Z,96892.47
2022-11-24T18:30:05.082Z,96893.03
2022-11-24T18:32:32.757Z,96893.03
2022-11-24T18:34:59.586Z,96890.31
2022-11-24T18:37:26.247Z,96896.50
2022-11-24T18:39:53.001Z,96894.34
2022-11-24T18:42:20.945Z,96896.19
2022-11-24T18:44:52.497Z,96904.41
2022-11-24T18:47:20.669Z,96896.19
2022-11-24T18:49:47.348Z,96894.91
2022-11-24T18:52:14.239Z,96902.38
2022-11-24T18:54:41.137Z,96910.56
2022-11-24T18:57:07.919Z,96911.88
2022-11-24T18:59:35.045Z,96911.88
2022-11-24T19:02:01.894Z,96909.72
2022-11-24T19:04:28.621Z,96913.19
2022-11-24T19:06:55.376Z,96910.44
2022-11-24T19:09:22.948Z,96911.16
2022-11-24T19:11:49.758Z,96914.03
2022-11-24T19:14:17.951Z,96911.88
2022-11-24T19:16:48.055Z,96896.78
2022-11-24T19:19:15.221Z,96898.22
2022-11-24T19:21:44.636Z,96900.22
2022-11-24T19:24:15.308Z,96906.41
2022-11-24T19:26:42.147Z,96907.72
2022-11-24T19:29:08.891Z,96903.41
2022-11-24T19:31:43.013Z,96912.88
2022-11-24T19:34:11.270Z,96914.91
2022-11-24T19:36:38.246Z,96918.94
2022-11-24T19:39:05.510Z,96916.78
2022-11-24T19:41:33.559Z,96920.78
2022-11-24T19:44:01.476Z,96911.16
2022-11-24T19:46:29.974Z,96910.44
2022-11-24T19:49:00.509Z,96904.88
2022-11-24T19:51:31.621Z,96905.41
2022-11-24T19:53:59.424Z,96901.97
2022-11-24T19:56:28.417Z,96903.13
2022-11-24T19:58:55.768Z,96910.63
2022-11-24T20:01:26.766Z,96904.28
2022-11-24T20:03:58.773Z,96913.78
2022-11-24T20:06:27.906Z,96906.88
2022-11-24T20:08:55.495Z,96908.91
2022-11-24T20:11:22.293Z,96902.72
2022-11-24T20:13:50.306Z,96900.53
2022-11-24T20:16:20.426Z,96899.69
2022-11-24T20:18:47.929Z,96898.28
2022-11-24T20:21:15.580Z,96893.38
2022-11-24T20:23:42.635Z,96885.75
2022-11-24T20:26:13.832Z,96887.06
2022-11-24T20:28:41.065Z,96890.38
2022-11-24T20:31:11.465Z,96886.78
2022-11-24T20:33:38.950Z,96881.91
2022-11-24T20:36:08.592Z,96885.22
2022-11-24T20:38:36.820Z,96894.25
2022-11-24T20:41:09.242Z,96889.38
2022-11-24T20:43:37.052Z,96900.88
2022-11-24T20:46:05.192Z,96897.41
2022-11-24T20:48:33.044Z,96899.28
2022-11-24T20:51:14.565Z,96895.25
2022-11-24T20:53:41.422Z,96896.53
2022-11-24T20:56:10.926Z,96890.94
2022-11-24T20:58:37.970Z,96907.47
2022-11-24T21:01:12.420Z,96892.94
2022-11-24T21:03:43.255Z,96884.75
2022-11-24T21:06:12.151Z,96890.78
2022-11-24T21:08:40.513Z,96890.78
2022-11-24T21:11:08.675Z,96891.38
2022-11-24T21:13:36.376Z,96886.63
2022-11-24T21:16:20.364Z,96887.22
2022-11-24T21:18:50.785Z,96879.75
2022-11-24T21:21:18.715Z,96893.38
2022-11-24T21:23:45.628Z,96893.97
2022-11-24T21:26:16.625Z,96891.97
2022-11-24T21:28:44.803Z,96887.78
2022-11-24T21:31:16.598Z,96887.78
2022-11-24T21:33:45.512Z,96884.50
2022-11-24T21:36:14.859Z,96877.59
2022-11-24T21:38:42.803Z,96874.13
2022-11-24T21:41:10.981Z,96871.25
2022-11-24T21:43:38.685Z,96882.91
2022-11-24T21:46:15.150Z,96890.06
2022-11-24T21:48:43.423Z,96882.75
2022-11-24T21:51:18.014Z,96883.34
2022-11-24T21:53:46.106Z,96883.59
2022-11-24T21:56:15.178Z,96884.47
2022-11-24T21:58:50.277Z,96876.28
2022-11-24T22:01:19.229Z,96881.88
2022-11-24T22:03:46.269Z,96891.50
2022-11-24T22:06:13.700Z,96888.94
2022-11-24T22:08:40.451Z,96891.03
2022-11-24T22:11:11.654Z,96883.59
2022-11-24T22:13:38.871Z,96884.59
2022-11-24T22:16:07.763Z,96886.06
2022-11-24T22:18:48.039Z,96886.91
2022-11-24T22:21:29.885Z,96882.88
2022-11-24T22:23:56.728Z,96885.06
2022-11-24T22:26:24.573Z,96887.06
2022-11-24T22:28:56.822Z,96889.06
2022-11-24T22:31:28.905Z,96889.06
2022-11-24T22:33:56.477Z,96881.59
2022-11-24T22:36:24.866Z,96879.44
2022-11-24T22:38:58.815Z,96881.47
2022-11-24T22:41:25.796Z,96882.88
2022-11-24T22:43:53.553Z,96877.31
2022-11-24T22:46:26.172Z,96879.31
2022-11-24T22:48:54.427Z,96875.28
2022-11-24T22:51:23.544Z,96877.31
2022-11-24T22:53:58.065Z,96873.13
2022-11-24T22:56:25.232Z,96876.72
2022-11-24T22:58:51.967Z,96873.84
2022-11-24T23:01:23.685Z,96878.59
2022-11-24T23:03:51.130Z,96875.16
2022-11-24T23:06:20.494Z,96873.13
2022-11-24T23:08:47.605Z,96880.03
2022-11-24T23:11:25.842Z,96883.19
2022-11-24T23:13:57.194Z,96889.34
2022-11-24T23:16:24.367Z,96884.47
2022-11-24T23:18:53.935Z,96874.84
2022-11-24T23:21:23.000Z,96879.72
2022-11-24T23:23:50.786Z,96881.03
2022-11-24T23:26:26.102Z,96878.13
2022-11-24T23:28:52.859Z,96882.13
2022-11-24T23:31:21.875Z,96874.53
2022-11-24T23:33:48.634Z,96869.06
2022-11-24T23:36:19.817Z,96876.53
2022-11-24T23:38:46.885Z,96872.53
2022-11-24T23:41:24.596Z,96873.09
2022-11-24T23:43:52.492Z,96873.25
2022-11-24T23:46:21.694Z,96867.06
2022-11-24T23:48:49.590Z,96873.81
2022-11-24T23:51:20.605Z,96865.63
2022-11-24T23:53:47.500Z,96865.63
2022-11-24T23:56:16.850Z,96865.50
2022-11-24T23:58:44.333Z,96868.94
